Time,TemperatureF,DewpointF,PressureIn,WindDirection,WindDirectionDegrees,WindSpeedMPH,WindSpeedGustMPH,Humidity,HourlyPrecipIn,Conditions,Clouds,dailyrainin,SoftwareType,DateUTC
2013-02-14 00:00:00,43.5,38.1,30.06,SE,145,0.0,2.0,81,0.00,,BKN110,0.00,VWS V14.01,2013-02-14 08:00:00,
2013-02-14 00:02:00,44.0,37.9,30.05,SE,145,0.0,0.0,79,0.00,,SKC,0.00,VWS V14.01,2013-02-14 08:02:00,
2013-02-14 00:07:00,43.7,37.6,30.05,SE,145,0.0,0.0,79,0.00,,SKC,0.00,VWS V14.01,2013-02-14 08:07:00,
2013-02-14 00:10:00,43.7,37.9,30.05,SE,145,0.0,0.0,80,0.00,,SKC,0.00,VWS V14.01,2013-02-14 08:10:00,
2013-02-14 00:12:00,43.5,37.8,30.05,SE,145,0.0,0.0,80,0.00,,SKC,0.00,VWS V14.01,2013-02-14 08:12:00,
2013-02-14 00:17:00,43.3,37.9,30.05,SE,145,0.0,0.0,81,0.00,,SKC,0.00,VWS V14.01,2013-02-14 08:17:00,
2013-02-14 00:20:00,43.3,37.9,30.05,SE,145,0.0,0.0,81,0.00,,SKC,0.00,VWS V14.01,2013-02-14 08:20:00,
2013-02-14 00:22:00,43.3,37.9,30.05,SE,145,0.0,0.0,81,0.00,,SKC,0.00,VWS V14.01,2013-02-14 08:22:00,
2013-02-14 00:27:00,43.2,37.8,30.05,SE,145,0.0,0.0,81,0.00,,SKC,0.00,VWS V14.01,2013-02-14 08:27:00,
2013-02-14 00:30:00,43.6,38.2,30.06,East,84,0.0,2.0,81,0.00,,BKN110,0.00,VWS V14.01,2013-02-14 08:30:00,
2013-02-14 00:32:00,43.2,38.1,30.05,SE,145,0.0,1.0,82,0.00,,SKC,0.00,VWS V14.01,2013-02-14 08:32:00,
2013-02-14 00:37:00,43.4,38.0,30.05,SE,145,0.0,1.0,81,0.00,,SKC,0.00,VWS V14.01,2013-02-14 08:37:00,
2013-02-14 00:40:00,43.6,38.2,30.06,NNE,20,0.0,3.0,81,0.00,,BKN110,0.00,VWS V14.01,2013-02-14 08:40:00,
2013-02-14 00:42:00,43.4,38.0,30.05,SE,145,0.0,0.0,81,0.00,,SKC,0.00,VWS V14.01,2013-02-14 08:42:00,
2013-02-14 00:47:00,43.4,38.0,30.06,SE,145,0.0,2.0,81,0.00,,SKC,0.00,VWS V14.01,2013-02-14 08:47:00,
2013-02-14 00:50:00,43.6,38.2,30.06,NNE,20,0.0,1.0,81,0.00,,FEW200,0.00,VWS V14.01,2013-02-14 08:50:00,
2013-02-14 00:53:00,43.4,38.0,30.06,SE,145,0.0,1.0,81,0.00,,SKC,0.00,VWS V14.01,2013-02-14 08:53:00,
2013-02-14 00:58:00,43.5,38.1,30.06,SE,145,0.0,2.0,81,0.00,,SKC,0.00,VWS V14.01,2013-02-14 08:58:00,
2013-02-14 01:00:00,43.5,38.1,30.06,SE,145,0.0,2.0,81,0.00,,SKC,0.00,VWS V14.01,2013-02-14 09:00:00,
2013-02-14 01:03:00,43.4,38.0,30.06,SE,145,0.0,0.0,81,0.00,,SKC,0.00,VWS V14.01,2013-02-14 09:03:00,
2013-02-14 01:08:00,43.4,38.0,30.06,SE,145,0.0,0.0,81,0.00,,SKC,0.00,VWS V14.01,2013-02-14 09:08:00,
2013-02-14 01:10:00,43.2,37.8,30.06,NNE,20,0.0,2.0,81,0.00,,FEW200,0.00,VWS V14.01,2013-02-14 09:10:00,
2013-02-14 01:13:00,43.4,38.0,30.06,SE,145,0.0,1.0,81,0.00,,SKC,0.00,VWS V14.01,2013-02-14 09:13:00,
2013-02-14 01:18:00,43.5,38.1,30.06,East,84,0.0,3.0,81,0.00,,SKC,0.00,VWS V14.01,2013-02-14 09:18:00,
2013-02-14 01:20:00,43.5,38.1,30.06,East,84,0.0,3.0,81,0.00,,SKC,0.00,VWS V14.01,2013-02-14 09:20:00,
2013-02-14 01:23:00,43.6,38.2,30.06,East,84,0.0,2.0,81,0.00,,SKC,0.00,VWS V14.01,2013-02-14 09:23:00,
2013-02-14 01:28:00,43.7,38.3,30.06,East,84,0.0,2.0,81,0.00,,SKC,0.00,VWS V14.01,2013-02-14 09:28:00,
2013-02-14 01:30:00,43.6,38.2,30.06,East,84,0.0,2.0,81,0.00,,SKC,0.00,VWS V14.01,2013-02-14 09:30:00,
2013-02-14 01:33:00,43.7,38.3,30.06,East,84,0.0,1.0,81,0.00,,SKC,0.00,VWS V14.01,2013-02-14 09:33:00,
2013-02-14 01:38:00,43.6,38.2,30.06,NNE,20,0.0,3.0,81,0.00,,SKC,0.00,VWS V14.01,2013-02-14 09:38:00,
2013-02-14 01:40:00,42.6,37.5,30.05,NNE,20,0.0,1.0,82,0.00,,FEW200,0.00,VWS V14.01,2013-02-14 09:40:00,
2013-02-14 01:43:00,43.6,38.2,30.06,NNE,20,0.0,1.0,81,0.00,,SKC,0.00,VWS V14.01,2013-02-14 09:43:00,
2013-02-14 01:48:00,43.6,38.2,30.06,NNE,20,0.0,1.0,81,0.00,,SKC,0.00,VWS V14.01,2013-02-14 09:48:00,
2013-02-14 01:50:00,42.5,37.7,30.05,NNE,20,0.0,0.0,83,0.00,,FEW200,0.00,VWS V14.01,2013-02-14 09:50:00,
2013-02-14 01:53:00,43.5,38.1,30.06,NNE,20,0.0,0.0,81,0.00,,SKC,0.00,VWS V14.01,2013-02-14 09:53:00,
2013-02-14 01:58:00,43.4,38.0,30.06,NNE,20,0.0,1.0,81,0.00,,SKC,0.00,VWS V14.01,2013-02-14 09:58:00,
2013-02-14 02:00:00,43.4,38.0,30.06,NNE,20,0.0,1.0,81,0.00,,SKC,0.00,VWS V14.01,2013-02-14 10:00:00,
2013-02-14 02:03:00,43.3,37.9,30.06,NNE,20,0.0,0.0,81,0.00,,SKC,0.00,VWS V14.01,2013-02-14 10:03:00,
2013-02-14 02:08:00,43.1,37.7,30.06,NNE,20,0.0,2.0,81,0.00,,SKC,0.00,VWS V14.01,2013-02-14 10:08:00,
2013-02-14 02:10:00,43.2,37.8,30.06,NNE,20,0.0,2.0,81,0.00,,SKC,0.00,VWS V14.01,2013-02-14 10:10:00,
2013-02-14 02:13:00,43.1,38.0,30.05,NNE,20,0.0,1.0,82,0.00,,SKC,0.00,VWS V14.01,2013-02-14 10:13:00,
2013-02-14 02:19:00,42.9,37.8,30.05,NNE,20,0.0,2.0,82,0.00,,SKC,0.00,VWS V14.01,2013-02-14 10:19:00,
2013-02-14 02:20:00,42.9,37.8,30.05,NNE,20,0.0,2.0,82,0.00,,SKC,0.00,VWS V14.01,2013-02-14 10:20:00,
2013-02-14 02:24:00,42.9,37.8,30.05,NNE,20,0.0,0.0,82,0.00,,SKC,0.00,VWS V14.01,2013-02-14 10:24:00,
2013-02-14 02:29:00,42.8,37.7,30.05,NNE,20,0.0,1.0,82,0.00,,SKC,0.00,VWS V14.01,2013-02-14 10:29:00,
2013-02-14 02:30:00,42.8,37.7,30.05,NNE,20,0.0,1.0,82,0.00,,SKC,0.00,VWS V14.01,2013-02-14 10:30:00,
2013-02-14 02:34:00,42.7,37.6,30.05,NNE,20,0.0,1.0,82,0.00,,SKC,0.00,VWS V14.01,2013-02-14 10:34:00,
2013-02-14 02:39:00,42.6,37.5,30.05,NNE,20,0.0,0.0,82,0.00,,SKC,0.00,VWS V14.01,2013-02-14 10:39:00,
2013-02-14 02:40:00,42.0,37.2,30.04,NNE,19,0.0,2.0,83,0.00,,BKN110,0.00,VWS V14.01,2013-02-14 10:40:00,
2013-02-14 02:44:00,42.5,37.4,30.05,NNE,20,0.0,0.0,82,0.00,,SKC,0.00,VWS V14.01,2013-02-14 10:44:00,
2013-02-14 02:49:00,42.4,37.6,30.05,NNE,20,0.0,0.0,83,0.00,,SKC,0.00,VWS V14.01,2013-02-14 10:49:00,
2013-02-14 02:50:00,42.5,37.7,30.05,NNE,20,0.0,0.0,83,0.00,,SKC,0.00,VWS V14.01,2013-02-14 10:50:00,
2013-02-14 02:54:00,42.3,37.5,30.05,NNE,20,0.0,2.0,83,0.00,,SKC,0.00,VWS V14.01,2013-02-14 10:54:00,
2013-02-14 02:59:00,42.3,37.5,30.05,NNE,20,0.0,0.0,83,0.00,,SKC,0.00,VWS V14.01,2013-02-14 10:59:00,
2013-02-14 03:00:00,42.3,37.5,30.05,NNE,20,0.0,2.0,83,0.00,,SKC,0.00,VWS V14.01,2013-02-14 11:00:00,
2013-02-14 03:04:00,42.2,37.4,30.05,NNE,20,0.0,1.0,83,0.00,,SKC,0.00,VWS V14.01,2013-02-14 11:04:00,
2013-02-14 03:09:00,42.2,37.4,30.05,NNE,20,0.0,2.0,83,0.00,,SKC,0.00,VWS V14.01,2013-02-14 11:09:00,
2013-02-14 03:10:00,41.5,36.7,30.04,NNE,19,0.0,2.0,83,0.00,,FEW200,0.00,VWS V14.01,2013-02-14 11:10:00,
2013-02-14 03:14:00,42.2,37.4,30.04,NNE,20,0.0,2.0,83,0.00,,SKC,0.00,VWS V14.01,2013-02-14 11:14:00,
2013-02-14 03:19:00,42.1,37.3,30.04,NNE,20,0.0,0.0,83,0.00,,SKC,0.00,VWS V14.01,2013-02-14 11:19:00,
2013-02-14 03:20:00,41.3,36.8,30.04,NNE,19,0.0,0.0,84,0.00,,FEW200,0.00,VWS V14.01,2013-02-14 11:20:00,
2013-02-14 03:24:00,42.1,37.3,30.04,NNE,20,0.0,1.0,83,0.00,,SKC,0.00,VWS V14.01,2013-02-14 11:24:00,
2013-02-14 03:29:00,42.1,37.3,30.04,NNE,20,0.0,0.0,83,0.00,,SKC,0.00,VWS V14.01,2013-02-14 11:29:00,
2013-02-14 03:30:00,41.2,36.7,30.04,NNE,19,0.0,1.0,84,0.00,,FEW200,0.00,VWS V14.01,2013-02-14 11:30:00,
2013-02-14 03:34:00,42.0,37.2,30.04,NNE,20,0.0,2.0,83,0.00,,SKC,0.00,VWS V14.01,2013-02-14 11:34:00,
2013-02-14 03:39:00,42.0,37.2,30.04,NNE,20,0.0,0.0,83,0.00,,SKC,0.00,VWS V14.01,2013-02-14 11:39:00,
2013-02-14 03:40:00,41.1,36.6,30.04,NNE,19,0.0,2.0,84,0.00,,FEW200,0.00,VWS V14.01,2013-02-14 11:40:00,
2013-02-14 03:44:00,41.9,37.1,30.04,NNE,19,0.0,2.0,83,0.00,,SKC,0.00,VWS V14.01,2013-02-14 11:44:00,
2013-02-14 03:49:00,41.9,37.1,30.04,NNE,19,0.0,0.0,83,0.00,,SKC,0.00,VWS V14.01,2013-02-14 11:49:00,
2013-02-14 03:50:00,41.9,37.1,30.04,NNE,19,0.0,2.0,83,0.00,,SKC,0.00,VWS V14.01,2013-02-14 11:50:00,
2013-02-14 03:54:00,41.8,37.0,30.04,NNE,19,2.0,3.0,83,0.00,,SKC,0.00,VWS V14.01,2013-02-14 11:54:00,
2013-02-14 03:59:00,41.7,36.9,30.04,NNE,19,0.0,0.0,83,0.00,,SKC,0.00,VWS V14.01,2013-02-14 11:59:00,
2013-02-14 04:00:00,41.7,36.9,30.04,NNE,19,0.0,3.0,83,0.00,,SKC,0.00,VWS V14.01,2013-02-14 12:00:00,
2013-02-14 04:05:00,41.6,36.8,30.04,NNE,19,0.0,2.0,83,0.00,,SKC,0.00,VWS V14.01,2013-02-14 12:05:00,
2013-02-14 04:10:00,41.5,36.7,30.04,NNE,19,0.0,0.0,83,0.00,,SKC,0.00,VWS V14.01,2013-02-14 12:10:00,
2013-02-14 04:15:00,41.4,36.9,30.04,NNE,19,0.0,0.0,84,0.00,,SKC,0.00,VWS V14.01,2013-02-14 12:15:00,
2013-02-14 04:20:00,41.3,36.8,30.04,NNE,19,0.0,0.0,84,0.00,,SKC,0.00,VWS V14.01,2013-02-14 12:20:00,
2013-02-14 04:25:00,41.2,36.7,30.04,NNE,19,1.0,1.0,84,0.00,,SKC,0.00,VWS V14.01,2013-02-14 12:25:00,
2013-02-14 04:30:00,41.1,36.6,30.04,NNE,19,0.0,1.0,84,0.00,,SKC,0.00,VWS V14.01,2013-02-14 12:30:00,
2013-02-14 04:35:00,41.1,36.6,30.04,NNE,19,0.0,1.0,84,0.00,,SKC,0.00,VWS V14.01,2013-02-14 12:35:00,
2013-02-14 04:40:00,41.1,36.6,30.04,NNE,19,0.0,0.0,84,0.00,,SKC,0.00,VWS V14.01,2013-02-14 12:40:00,
2013-02-14 04:45:00,41.0,36.5,30.03,NNE,19,0.0,0.0,84,0.00,,SKC,0.00,VWS V14.01,2013-02-14 12:45:00,
2013-02-14 04:50:00,40.8,36.3,30.03,NNE,19,0.0,0.0,84,0.00,,SKC,0.00,VWS V14.01,2013-02-14 12:50:00,
2013-02-14 04:55:00,40.7,36.2,30.03,NNE,19,0.0,0.0,84,0.00,,SKC,0.00,VWS V14.01,2013-02-14 12:55:00,
2013-02-14 05:00:00,40.5,36.0,30.03,NNE,19,0.0,0.0,84,0.00,,SKC,0.00,VWS V14.01,2013-02-14 13:00:00,
2013-02-14 05:05:00,40.2,35.8,30.03,NNE,19,0.0,0.0,84,0.00,,SKC,0.00,VWS V14.01,2013-02-14 13:05:00,
2013-02-14 05:10:00,39.9,35.5,30.03,NNE,19,0.0,0.0,84,0.00,,SKC,0.00,VWS V14.01,2013-02-14 13:10:00,
2013-02-14 05:15:00,39.7,35.3,30.03,NNE,19,0.0,0.0,84,0.00,,SKC,0.00,VWS V14.01,2013-02-14 13:15:00,
2013-02-14 05:20:00,39.5,35.4,30.03,NNE,19,0.0,0.0,85,0.00,,SKC,0.00,VWS V14.01,2013-02-14 13:20:00,
2013-02-14 05:25:00,39.2,35.1,30.03,NNE,19,0.0,0.0,85,0.00,,SKC,0.00,VWS V14.01,2013-02-14 13:25:00,
2013-02-14 05:30:00,38.9,35.1,30.04,NNE,19,0.0,0.0,86,0.00,,SKC,0.00,VWS V14.01,2013-02-14 13:30:00,
2013-02-14 05:35:00,38.7,34.6,30.04,NNE,19,0.0,0.0,85,0.00,,SKC,0.00,VWS V14.01,2013-02-14 13:35:00,
2013-02-14 05:40:00,38.5,34.7,30.04,NNE,19,0.0,0.0,86,0.00,,SKC,0.00,VWS V14.01,2013-02-14 13:40:00,
2013-02-14 05:45:00,38.2,34.7,30.04,NNE,19,0.0,0.0,87,0.00,,SKC,0.00,VWS V14.01,2013-02-14 13:45:00,
2013-02-14 05:50:00,38.1,34.6,30.04,NNE,19,0.0,0.0,87,0.00,,SKC,0.00,VWS V14.01,2013-02-14 13:50:00,
2013-02-14 05:55:00,38.0,34.8,30.04,NNE,19,0.0,0.0,88,0.00,,SKC,0.00,VWS V14.01,2013-02-14 13:55:00,
2013-02-14 06:00:00,37.9,34.7,30.04,NNE,19,0.0,0.0,88,0.00,,SKC,0.00,VWS V14.01,2013-02-14 14:00:00,
2013-02-14 06:06:00,37.8,34.6,30.04,NNE,19,0.0,0.0,88,0.00,,SKC,0.00,VWS V14.01,2013-02-14 14:06:00,
2013-02-14 06:10:00,36.9,34.5,30.05,NNE,19,0.0,0.0,91,0.00,,BKN110,0.00,VWS V14.01,2013-02-14 14:10:00,
2013-02-14 06:11:00,37.7,34.8,30.04,NNE,19,0.0,0.0,89,0.00,,SKC,0.00,VWS V14.01,2013-02-14 14:11:00,
2013-02-14 06:16:00,37.6,34.7,30.05,NNE,19,0.0,0.0,89,0.00,,SKC,0.00,VWS V14.01,2013-02-14 14:16:00,
2013-02-14 06:20:00,37.2,34.8,30.05,NNE,19,0.0,0.0,91,0.00,,FEW200,0.00,VWS V14.01,2013-02-14 14:20:00,
2013-02-14 06:21:00,37.5,34.6,30.05,NNE,19,0.0,0.0,89,0.00,,SKC,0.00,VWS V14.01,2013-02-14 14:21:00,
2013-02-14 06:26:00,37.4,34.5,30.05,NNE,19,0.0,0.0,89,0.00,,SKC,0.00,VWS V14.01,2013-02-14 14:26:00,
2013-02-14 06:30:00,37.6,35.2,30.06,NNE,19,1.0,2.0,91,0.00,,FEW200,0.00,VWS V14.01,2013-02-14 14:30:00,
2013-02-14 06:31:00,37.3,34.4,30.05,NNE,19,0.0,0.0,89,0.00,,SKC,0.00,VWS V14.01,2013-02-14 14:31:00,
2013-02-14 06:36:00,37.2,34.3,30.05,NNE,19,0.0,0.0,89,0.00,,SKC,0.00,VWS V14.01,2013-02-14 14:36:00,
2013-02-14 06:40:00,37.1,34.2,30.05,NNE,19,0.0,0.0,89,0.00,,SKC,0.00,VWS V14.01,2013-02-14 14:40:00,
2013-02-14 06:41:00,37.1,34.2,30.05,NNE,19,0.0,0.0,89,0.00,,SKC,0.00,VWS V14.01,2013-02-14 14:41:00,
2013-02-14 06:46:00,36.9,34.0,30.05,NNE,19,0.0,0.0,89,0.00,,SKC,0.00,VWS V14.01,2013-02-14 14:46:00,
2013-02-14 06:50:00,39.4,36.4,30.06,NNE,19,0.0,1.0,89,0.00,,BKN110,0.00,VWS V14.01,2013-02-14 14:50:00,
2013-02-14 06:51:00,36.8,34.2,30.05,NNE,19,0.0,0.0,90,0.00,,SKC,0.00,VWS V14.01,2013-02-14 14:51:00,
2013-02-14 06:56:00,36.8,34.2,30.05,NNE,19,0.0,0.0,90,0.00,,SKC,0.00,VWS V14.01,2013-02-14 14:56:00,
2013-02-14 07:00:00,36.8,34.2,30.05,NNE,19,0.0,0.0,90,0.00,,SKC,0.00,VWS V14.01,2013-02-14 15:00:00,
2013-02-14 07:01:00,36.8,34.2,30.05,NNE,19,0.0,0.0,90,0.00,,SKC,0.00,VWS V14.01,2013-02-14 15:01:00,
2013-02-14 07:06:00,36.8,34.4,30.05,NNE,19,0.0,0.0,91,0.00,,SKC,0.00,VWS V14.01,2013-02-14 15:06:00,
2013-02-14 07:10:00,36.9,34.5,30.05,NNE,19,0.0,0.0,91,0.00,,SKC,0.00,VWS V14.01,2013-02-14 15:10:00,
2013-02-14 07:11:00,36.9,34.5,30.05,NNE,19,0.0,0.0,91,0.00,,SKC,0.00,VWS V14.01,2013-02-14 15:11:00,
2013-02-14 07:16:00,37.1,34.7,30.05,NNE,19,0.0,0.0,91,0.00,,SKC,0.00,VWS V14.01,2013-02-14 15:16:00,
2013-02-14 07:20:00,45.2,39.4,30.07,West,279,0.0,0.0,80,0.00,,BKN110,0.00,VWS V14.01,2013-02-14 15:20:00,
2013-02-14 07:21:00,37.3,34.9,30.05,NNE,19,0.0,0.0,91,0.00,,SKC,0.00,VWS V14.01,2013-02-14 15:21:00,
2013-02-14 07:26:00,37.5,35.1,30.05,NNE,19,0.0,0.0,91,0.00,,SKC,0.00,VWS V14.01,2013-02-14 15:26:00,
2013-02-14 07:30:00,37.6,35.2,30.06,NNE,19,1.0,2.0,91,0.00,,SKC,0.00,VWS V14.01,2013-02-14 15:30:00,
2013-02-14 07:31:00,37.8,35.4,30.06,NNE,19,0.0,1.0,91,0.00,,SKC,0.00,VWS V14.01,2013-02-14 15:31:00,
2013-02-14 07:36:00,38.1,35.7,30.06,NNE,19,0.0,1.0,91,0.00,,SKC,0.00,VWS V14.01,2013-02-14 15:36:00,
2013-02-14 07:40:00,38.3,35.9,30.06,NNE,19,0.0,1.0,91,0.00,,SKC,0.00,VWS V14.01,2013-02-14 15:40:00,
2013-02-14 07:41:00,38.6,35.9,30.06,NNE,19,0.0,1.0,90,0.00,,SKC,0.00,VWS V14.01,2013-02-14 15:41:00,
2013-02-14 07:46:00,39.2,36.5,30.06,NNE,19,0.0,1.0,90,0.00,,SKC,0.00,VWS V14.01,2013-02-14 15:46:00,
2013-02-14 07:50:00,39.4,36.4,30.06,NNE,19,0.0,1.0,89,0.00,,SKC,0.00,VWS V14.01,2013-02-14 15:50:00,
2013-02-14 07:51:00,39.9,36.9,30.06,NNE,19,0.0,1.0,89,0.00,,SKC,0.00,VWS V14.01,2013-02-14 15:51:00,
2013-02-14 07:56:00,40.8,37.5,30.06,West,279,0.0,2.0,88,0.00,,SKC,0.00,VWS V14.01,2013-02-14 15:56:00,
2013-02-14 08:00:00,41.1,37.5,30.07,West,279,0.0,2.0,87,0.00,,SKC,0.00,VWS V14.01,2013-02-14 16:00:00,
2013-02-14 08:01:00,41.7,38.1,30.07,West,279,0.0,0.0,87,0.00,,SKC,0.00,VWS V14.01,2013-02-14 16:01:00,
2013-02-14 08:06:00,42.7,38.5,30.07,West,279,0.0,0.0,85,0.00,,SKC,0.00,VWS V14.01,2013-02-14 16:06:00,
2013-02-14 08:10:00,43.1,38.6,30.07,West,279,0.0,0.0,84,0.00,,SKC,0.00,VWS V14.01,2013-02-14 16:10:00,
2013-02-14 08:11:00,43.6,39.1,30.07,West,279,0.0,0.0,84,0.00,,SKC,0.00,VWS V14.01,2013-02-14 16:11:00,
2013-02-14 08:16:00,44.7,39.5,30.07,West,279,0.0,0.0,82,0.00,,SKC,0.00,VWS V14.01,2013-02-14 16:16:00,
2013-02-14 08:20:00,45.2,39.4,30.07,West,279,0.0,0.0,80,0.00,,SKC,0.00,VWS V14.01,2013-02-14 16:20:00,
2013-02-14 08:21:00,45.7,39.9,30.07,West,279,0.0,0.0,80,0.00,,SKC,0.00,VWS V14.01,2013-02-14 16:21:00,
2013-02-14 08:26:00,46.6,40.1,30.07,West,279,0.0,0.0,78,0.00,,SKC,0.00,VWS V14.01,2013-02-14 16:26:00,
2013-02-14 08:30:00,47.0,40.5,30.08,West,279,0.0,1.0,78,0.00,,SKC,0.00,VWS V14.01,2013-02-14 16:30:00,
2013-02-14 08:31:00,47.6,40.8,30.08,West,279,0.0,0.0,77,0.00,,SKC,0.00,VWS V14.01,2013-02-14 16:31:00,
2013-02-14 08:37:00,48.7,41.5,30.08,West,279,0.0,1.0,76,0.00,,SKC,0.00,VWS V14.01,2013-02-14 16:37:00,
2013-02-14 08:40:00,49.1,41.5,30.08,West,279,0.0,1.0,75,0.00,,SKC,0.00,VWS V14.01,2013-02-14 16:40:00,
2013-02-14 08:42:00,49.8,41.9,30.08,West,279,0.0,1.0,74,0.00,,SKC,0.00,VWS V14.01,2013-02-14 16:42:00,
2013-02-14 08:47:00,50.7,41.7,30.08,West,279,0.0,1.0,71,0.00,,SKC,0.00,VWS V14.01,2013-02-14 16:47:00,
2013-02-14 08:50:00,50.9,41.5,30.08,West,279,0.0,1.0,70,0.00,,SKC,0.00,VWS V14.01,2013-02-14 16:50:00,
2013-02-14 08:52:00,51.3,41.9,30.08,West,279,0.0,0.0,70,0.00,,SKC,0.00,VWS V14.01,2013-02-14 16:52:00,
2013-02-14 08:57:00,51.8,42.0,30.08,West,279,0.0,0.0,69,0.00,,SKC,0.00,VWS V14.01,2013-02-14 16:57:00,
2013-02-14 09:00:00,56.4,42.7,30.07,WSW,245,0.0,2.0,60,0.00,,BKN110,0.00,VWS V14.01,2013-02-14 17:00:00,
2013-02-14 09:02:00,52.5,41.9,30.08,West,279,0.0,1.0,67,0.00,,SKC,0.00,VWS V14.01,2013-02-14 17:02:00,
2013-02-14 09:07:00,52.9,41.9,30.08,West,279,0.0,1.0,66,0.00,,SKC,0.00,VWS V14.01,2013-02-14 17:07:00,
2013-02-14 09:10:00,53.2,42.2,30.08,West,279,0.0,1.0,66,0.00,,SKC,0.00,VWS V14.01,2013-02-14 17:10:00,
2013-02-14 09:12:00,53.5,42.4,30.08,West,279,0.0,1.0,66,0.00,,SKC,0.00,VWS V14.01,2013-02-14 17:12:00,
2013-02-14 09:17:00,54.2,42.3,30.07,WSW,246,0.0,4.0,64,0.00,,SKC,0.00,VWS V14.01,2013-02-14 17:17:00,
2013-02-14 09:20:00,54.4,42.1,30.07,WSW,246,0.0,4.0,63,0.00,,SKC,0.00,VWS V14.01,2013-02-14 17:20:00,
2013-02-14 09:22:00,54.7,42.4,30.07,WSW,246,0.0,0.0,63,0.00,,SKC,0.00,VWS V14.01,2013-02-14 17:22:00,
2013-02-14 09:27:00,55.0,42.2,30.07,WSW,246,0.0,1.0,62,0.00,,SKC,0.00,VWS V14.01,2013-02-14 17:27:00,
2013-02-14 09:30:00,55.0,42.7,30.07,WSW,246,0.0,1.0,63,0.00,,SKC,0.00,VWS V14.01,2013-02-14 17:30:00,
2013-02-14 09:32:00,55.4,43.0,30.07,WSW,246,0.0,0.0,63,0.00,,SKC,0.00,VWS V14.01,2013-02-14 17:32:00,
2013-02-14 09:37:00,55.8,43.0,30.07,WSW,246,0.0,1.0,62,0.00,,SKC,0.00,VWS V14.01,2013-02-14 17:37:00,
2013-02-14 09:40:00,60.2,44.9,30.07,WSW,245,0.0,2.0,57,0.00,,BKN110,0.00,VWS V14.01,2013-02-14 17:40:00,
2013-02-14 09:42:00,56.3,43.5,30.07,WSW,246,0.0,0.0,62,0.00,,SKC,0.00,VWS V14.01,2013-02-14 17:42:00,
2013-02-14 09:47:00,56.8,43.1,30.07,WSW,246,0.0,1.0,60,0.00,,SKC,0.00,VWS V14.01,2013-02-14 17:47:00,
2013-02-14 09:50:00,56.8,42.6,30.07,WSW,246,0.0,2.0,59,0.00,,SKC,0.00,VWS V14.01,2013-02-14 17:50:00,
2013-02-14 09:52:00,56.6,42.9,30.07,WSW,246,1.0,1.0,60,0.00,,SKC,0.00,VWS V14.01,2013-02-14 17:52:00,
2013-02-14 09:57:00,56.4,42.3,30.07,WSW,245,0.0,2.0,59,0.00,,SKC,0.00,VWS V14.01,2013-02-14 17:57:00,
2013-02-14 10:00:00,56.4,42.7,30.07,WSW,245,0.0,2.0,60,0.00,,SKC,0.00,VWS V14.01,2013-02-14 18:00:00,
2013-02-14 10:02:00,56.5,42.4,30.07,WSW,245,0.0,0.0,59,0.00,,SKC,0.00,VWS V14.01,2013-02-14 18:02:00,
2013-02-14 10:07:00,56.8,43.1,30.07,WSW,245,0.0,1.0,60,0.00,,SKC,0.00,VWS V14.01,2013-02-14 18:07:00,
2013-02-14 10:10:00,56.8,42.6,30.07,WSW,245,0.0,1.0,59,0.00,,SKC,0.00,VWS V14.01,2013-02-14 18:10:00,
2013-02-14 10:12:00,57.1,43.4,30.07,WSW,245,1.0,1.0,60,0.00,,SKC,0.00,VWS V14.01,2013-02-14 18:12:00,
2013-02-14 10:17:00,57.6,43.4,30.07,WSW,245,0.0,1.0,59,0.00,,SKC,0.00,VWS V14.01,2013-02-14 18:17:00,
2013-02-14 10:20:00,61.9,45.1,30.05,SW,219,0.0,5.0,54,0.00,,FEW200,0.00,VWS V14.01,2013-02-14 18:20:00,
2013-02-14 10:22:00,58.4,43.7,30.07,WSW,245,1.0,1.0,58,0.00,,SKC,0.00,VWS V14.01,2013-02-14 18:22:00,
2013-02-14 10:27:00,58.8,43.6,30.07,WSW,245,0.0,1.0,57,0.00,,SKC,0.00,VWS V14.01,2013-02-14 18:27:00,
2013-02-14 10:30:00,62.5,45.2,30.05,SSW,204,3.0,3.0,53,0.00,,FEW200,0.00,VWS V14.01,2013-02-14 18:30:00,
2013-02-14 10:32:00,59.3,44.5,30.07,WSW,245,0.0,2.0,58,0.00,,SKC,0.00,VWS V14.01,2013-02-14 18:32:00,
2013-02-14 10:38:00,60.0,44.7,30.07,WSW,245,0.0,2.0,57,0.00,,SKC,0.00,VWS V14.01,2013-02-14 18:38:00,
2013-02-14 10:40:00,63.1,44.7,30.05,SSW,212,0.0,4.0,51,0.00,,FEW200,0.00,VWS V14.01,2013-02-14 18:40:00,
2013-02-14 10:43:00,60.6,44.8,30.07,WSW,245,1.0,2.0,56,0.00,,SKC,0.00,VWS V14.01,2013-02-14 18:43:00,
2013-02-14 10:48:00,61.2,44.4,30.07,SW,221,1.0,4.0,54,0.00,,SKC,0.00,VWS V14.01,2013-02-14 18:48:00,
2013-02-14 10:50:00,63.3,44.9,30.05,SSW,196,1.0,4.0,51,0.00,,BKN110,0.00,VWS V14.01,2013-02-14 18:50:00,
2013-02-14 10:53:00,61.3,45.0,30.07,SSW,209,3.0,4.0,55,0.00,,SKC,0.00,VWS V14.01,2013-02-14 18:53:00,
2013-02-14 10:58:00,61.2,44.9,30.07,SSW,206,0.0,4.0,55,0.00,,SKC,0.00,VWS V14.01,2013-02-14 18:58:00,
2013-02-14 11:00:00,61.1,44.8,30.06,SSW,206,0.0,4.0,55,0.00,,SKC,0.00,VWS V14.01,2013-02-14 19:00:00,
2013-02-14 11:03:00,61.2,44.9,30.06,SSW,206,0.0,1.0,55,0.00,,SKC,0.00,VWS V14.01,2013-02-14 19:03:00,
2013-02-14 11:08:00,61.6,45.3,30.06,SSW,204,0.0,2.0,55,0.00,,SKC,0.00,VWS V14.01,2013-02-14 19:08:00,
2013-02-14 11:10:00,61.6,44.8,30.06,SSW,200,1.0,2.0,54,0.00,,SKC,0.00,VWS V14.01,2013-02-14 19:10:00,
2013-02-14 11:13:00,61.7,44.9,30.05,South,179,0.0,5.0,54,0.00,,SKC,0.00,VWS V14.01,2013-02-14 19:13:00,
2013-02-14 11:18:00,61.8,45.0,30.05,SW,218,2.0,5.0,54,0.00,,SKC,0.00,VWS V14.01,2013-02-14 19:18:00,
2013-02-14 11:20:00,61.9,45.1,30.05,SW,219,0.0,5.0,54,0.00,,SKC,0.00,VWS V14.01,2013-02-14 19:20:00,
2013-02-14 11:23:00,62.3,45.0,30.05,SSW,213,1.0,2.0,53,0.00,,SKC,0.00,VWS V14.01,2013-02-14 19:23:00,
2013-02-14 11:28:00,62.5,45.2,30.05,SSW,211,0.0,3.0,53,0.00,,SKC,0.00,VWS V14.01,2013-02-14 19:28:00,
2013-02-14 11:30:00,62.5,45.2,30.05,SSW,204,3.0,3.0,53,0.00,,SKC,0.00,VWS V14.01,2013-02-14 19:30:00,
2013-02-14 11:33:00,62.6,45.2,30.05,South,179,1.0,4.0,53,0.00,,SKC,0.00,VWS V14.01,2013-02-14 19:33:00,
2013-02-14 11:38:00,63.1,45.2,30.05,SSW,212,0.0,4.0,52,0.00,,SKC,0.00,VWS V14.01,2013-02-14 19:38:00,
2013-02-14 11:40:00,63.1,44.7,30.05,SSW,212,0.0,4.0,51,0.00,,SKC,0.00,VWS V14.01,2013-02-14 19:40:00,
2013-02-14 11:43:00,63.2,44.8,30.05,SSW,212,0.0,1.0,51,0.00,,SKC,0.00,VWS V14.01,2013-02-14 19:43:00,
2013-02-14 11:48:00,63.3,44.9,30.05,SSE,167,3.0,4.0,51,0.00,,SKC,0.00,VWS V14.01,2013-02-14 19:48:00,
2013-02-14 11:50:00,63.3,44.9,30.05,SSW,196,1.0,4.0,51,0.00,,SKC,0.00,VWS V14.01,2013-02-14 19:50:00,
2013-02-14 11:53:00,63.5,45.1,30.05,SSW,194,0.0,2.0,51,0.00,,SKC,0.00,VWS V14.01,2013-02-14 19:53:00,
2013-02-14 11:58:00,64.0,45.5,30.03,WSW,245,0.0,3.0,51,0.00,,SKC,0.00,VWS V14.01,2013-02-14 19:58:00,
2013-02-14 12:00:00,64.1,45.6,30.03,WSW,240,1.0,3.0,51,0.00,,SKC,0.00,VWS V14.01,2013-02-14 20:00:00,
2013-02-14 12:03:00,64.5,46.0,30.03,SW,216,0.0,3.0,51,0.00,,SKC,0.00,VWS V14.01,2013-02-14 20:03:00,
2013-02-14 12:08:00,64.8,46.3,30.03,SW,214,2.0,3.0,51,0.00,,SKC,0.00,VWS V14.01,2013-02-14 20:08:00,
2013-02-14 12:10:00,64.9,46.4,30.03,SW,214,0.0,3.0,51,0.00,,SKC,0.00,VWS V14.01,2013-02-14 20:10:00,
2013-02-14 12:13:00,65.2,46.1,30.03,West,274,5.0,5.0,50,0.00,,SKC,0.00,VWS V14.01,2013-02-14 20:13:00,
2013-02-14 12:18:00,65.5,45.8,30.03,West,273,1.0,6.0,49,0.00,,SKC,0.00,VWS V14.01,2013-02-14 20:18:00,
2013-02-14 12:20:00,65.5,46.4,30.03,West,273,0.0,6.0,50,0.00,,SKC,0.00,VWS V14.01,2013-02-14 20:20:00,
2013-02-14 12:23:00,65.7,46.6,30.03,West,274,0.0,2.0,50,0.00,,SKC,0.00,VWS V14.01,2013-02-14 20:23:00,
2013-02-14 12:28:00,65.6,46.5,30.02,WNW,295,0.0,8.0,50,0.00,,SKC,0.00,VWS V14.01,2013-02-14 20:28:00,
2013-02-14 12:30:00,65.6,46.5,30.02,West,264,4.0,8.0,50,0.00,,SKC,0.00,VWS V14.01,2013-02-14 20:30:00,
2013-02-14 12:33:00,65.7,46.0,30.02,WNW,289,2.0,4.0,49,0.00,,SKC,0.00,VWS V14.01,2013-02-14 20:33:00,
2013-02-14 12:38:00,65.6,45.4,30.02,West,270,1.0,6.0,48,0.00,,SKC,0.00,VWS V14.01,2013-02-14 20:38:00,
2013-02-14 12:40:00,65.6,45.4,30.02,West,270,0.0,6.0,48,0.00,,SKC,0.00,VWS V14.01,2013-02-14 20:40:00,
2013-02-14 12:43:00,65.9,45.7,30.02,West,270,0.0,2.0,48,0.00,,SKC,0.00,VWS V14.01,2013-02-14 20:43:00,
2013-02-14 12:48:00,65.9,45.1,30.02,NNW,327,0.0,5.0,47,0.00,,SKC,0.00,VWS V14.01,2013-02-14 20:48:00,
2013-02-14 12:50:00,65.9,44.6,30.02,NNW,327,0.0,5.0,46,0.00,,SKC,0.00,VWS V14.01,2013-02-14 20:50:00,
2013-02-14 12:53:00,65.9,44.6,30.02,NW,326,0.0,1.0,46,0.00,,SKC,0.00,VWS V14.01,2013-02-14 20:53:00,
2013-02-14 12:58:00,66.1,45.3,30.02,SSW,194,3.0,4.0,47,0.00,,SKC,0.00,VWS V14.01,2013-02-14 20:58:00,
2013-02-14 13:00:00,66.1,45.3,30.02,SSW,194,2.0,4.0,47,0.00,,SKC,0.00,VWS V14.01,2013-02-14 21:00:00,
2013-02-14 13:03:00,65.7,44.4,30.02,SSE,164,2.0,4.0,46,0.00,,SKC,0.00,VWS V14.01,2013-02-14 21:03:00,
2013-02-14 13:09:00,65.5,44.2,30.02,SSE,158,1.0,4.0,46,0.00,,SKC,0.00,VWS V14.01,2013-02-14 21:09:00,
2013-02-14 13:10:00,65.5,45.3,30.02,ESE,121,1.0,7.0,48,0.00,,FEW200,0.00,VWS V14.01,2013-02-14 21:10:00,
2013-02-14 13:14:00,65.3,44.6,30.02,SSW,205,0.0,4.0,47,0.00,,SKC,0.00,VWS V14.01,2013-02-14 21:14:00,
2013-02-14 13:19:00,66.1,44.7,30.02,WSW,256,1.0,4.0,46,0.00,,SKC,0.00,VWS V14.01,2013-02-14 21:19:00,
2013-02-14 13:20:00,66.1,44.7,30.02,WSW,256,1.0,4.0,46,0.00,,SKC,0.00,VWS V14.01,2013-02-14 21:20:00,
2013-02-14 13:24:00,66.9,44.9,30.02,SSW,210,1.0,4.0,45,0.00,,SKC,0.00,VWS V14.01,2013-02-14 21:24:00,
2013-02-14 13:29:00,67.2,44.6,30.02,SSW,198,1.0,4.0,44,0.00,,SKC,0.00,VWS V14.01,2013-02-14 21:29:00,
2013-02-14 13:30:00,65.3,45.1,30.00,ESE,123,2.0,5.0,48,0.00,,FEW200,0.00,VWS V14.01,2013-02-14 21:30:00,
2013-02-14 13:34:00,67.6,45.5,30.02,ESE,113,3.0,4.0,45,0.00,,SKC,0.00,VWS V14.01,2013-02-14 21:34:00,
2013-02-14 13:39:00,67.1,46.2,30.02,SSE,150,4.0,6.0,47,0.00,,SKC,0.00,VWS V14.01,2013-02-14 21:39:00,
2013-02-14 13:40:00,67.1,46.2,30.02,SSE,150,4.0,6.0,47,0.00,,SKC,0.00,VWS V14.01,2013-02-14 21:40:00,
2013-02-14 13:44:00,66.9,46.0,30.02,South,181,3.0,7.0,47,0.00,,SKC,0.00,VWS V14.01,2013-02-14 21:44:00,
2013-02-14 13:49:00,67.0,46.1,30.02,SSW,199,2.0,2.0,47,0.00,,SKC,0.00,VWS V14.01,2013-02-14 21:49:00,
2013-02-14 13:50:00,65.2,46.1,30.01,SE,129,1.0,7.0,50,0.00,,BKN110,0.00,VWS V14.01,2013-02-14 21:50:00,
2013-02-14 13:54:00,67.0,45.6,30.02,SE,145,2.0,5.0,46,0.00,,SKC,0.00,VWS V14.01,2013-02-14 21:54:00,
2013-02-14 13:59:00,66.3,45.5,30.02,South,183,3.0,7.0,47,0.00,,SKC,0.00,VWS V14.01,2013-02-14 21:59:00,
2013-02-14 14:00:00,66.3,45.5,30.02,SE,128,6.0,7.0,47,0.00,,SKC,0.00,VWS V14.01,2013-02-14 22:00:00,
2013-02-14 14:04:00,65.8,46.1,30.02,SE,145,2.0,7.0,49,0.00,,SKC,0.00,VWS V14.01,2013-02-14 22:04:00,
2013-02-14 14:09:00,65.5,45.3,30.02,ESE,121,0.0,1.0,48,0.00,,SKC,0.00,VWS V14.01,2013-02-14 22:09:00,
2013-02-14 14:10:00,65.5,45.3,30.02,ESE,121,1.0,7.0,48,0.00,,SKC,0.00,VWS V14.01,2013-02-14 22:10:00,
2013-02-14 14:14:00,65.4,45.8,30.01,SSE,155,1.0,4.0,49,0.00,,SKC,0.00,VWS V14.01,2013-02-14 22:14:00,
2013-02-14 14:19:00,65.6,46.0,30.01,East,95,3.0,3.0,49,0.00,,SKC,0.00,VWS V14.01,2013-02-14 22:19:00,
2013-02-14 14:20:00,66.0,46.3,30.00,ESE,120,0.0,6.0,49,0.00,,FEW200,0.00,VWS V14.01,2013-02-14 22:20:00,
2013-02-14 14:24:00,65.7,46.0,30.01,SE,140,2.0,4.0,49,0.00,,SKC,0.00,VWS V14.01,2013-02-14 22:24:00,
2013-02-14 14:29:00,65.3,45.1,30.00,SE,127,4.0,4.0,48,0.00,,SKC,0.00,VWS V14.01,2013-02-14 22:29:00,
2013-02-14 14:30:00,66.0,46.8,30.00,East,89,2.0,4.0,50,0.00,,BKN110,0.00,VWS V14.01,2013-02-14 22:30:00,
2013-02-14 14:34:00,65.1,45.5,30.00,SE,140,1.0,4.0,49,0.00,,SKC,0.00,VWS V14.01,2013-02-14 22:34:00,
2013-02-14 14:39:00,65.1,46.0,30.00,SSE,162,7.0,7.0,50,0.00,,SKC,0.00,VWS V14.01,2013-02-14 22:39:00,
2013-02-14 14:40:00,65.1,46.0,30.00,SE,145,1.0,4.0,50,0.00,,SKC,0.00,VWS V14.01,2013-02-14 22:40:00,
2013-02-14 14:44:00,65.0,45.9,30.01,ESE,115,3.0,7.0,50,0.00,,SKC,0.00,VWS V14.01,2013-02-14 22:44:00,
2013-02-14 14:49:00,65.2,46.1,30.01,SE,129,0.0,1.0,50,0.00,,SKC,0.00,VWS V14.01,2013-02-14 22:49:00,
2013-02-14 14:50:00,65.2,46.1,30.01,SE,129,1.0,7.0,50,0.00,,SKC,0.00,VWS V14.01,2013-02-14 22:50:00,
2013-02-14 14:54:00,65.4,46.3,30.01,SE,126,3.0,5.0,50,0.00,,SKC,0.00,VWS V14.01,2013-02-14 22:54:00,
2013-02-14 14:59:00,65.7,46.0,30.01,SSE,156,3.0,5.0,49,0.00,,SKC,0.00,VWS V14.01,2013-02-14 22:59:00,
2013-02-14 15:00:00,65.7,46.0,30.01,SE,140,5.0,6.0,49,0.00,,SKC,0.00,VWS V14.01,2013-02-14 23:00:00,
2013-02-14 15:04:00,65.5,46.4,30.01,East,97,3.0,6.0,50,0.00,,SKC,0.00,VWS V14.01,2013-02-14 23:04:00,
2013-02-14 15:09:00,65.7,46.0,30.01,SSE,166,5.0,5.0,49,0.00,,SKC,0.00,VWS V14.01,2013-02-14 23:09:00,
2013-02-14 15:10:00,65.7,46.0,30.01,SE,140,0.0,6.0,49,0.00,,SKC,0.00,VWS V14.01,2013-02-14 23:10:00,
2013-02-14 15:14:00,65.9,46.8,30.00,ESE,106,2.0,5.0,50,0.00,,SKC,0.00,VWS V14.01,2013-02-14 23:14:00,
2013-02-14 15:19:00,66.0,46.3,30.00,SE,133,1.0,4.0,49,0.00,,SKC,0.00,VWS V14.01,2013-02-14 23:19:00,
2013-02-14 15:20:00,66.0,46.3,30.00,ESE,120,0.0,6.0,49,0.00,,SKC,0.00,VWS V14.01,2013-02-14 23:20:00,
2013-02-14 15:24:00,65.9,46.2,30.00,SE,145,0.0,4.0,49,0.00,,SKC,0.00,VWS V14.01,2013-02-14 23:24:00,
2013-02-14 15:29:00,66.0,46.8,30.00,East,91,1.0,4.0,50,0.00,,SKC,0.00,VWS V14.01,2013-02-14 23:29:00,
2013-02-14 15:30:00,66.0,46.8,30.00,East,89,2.0,4.0,50,0.00,,SKC,0.00,VWS V14.01,2013-02-14 23:30:00,
2013-02-14 15:34:00,65.9,46.8,30.00,ESE,109,2.0,6.0,50,0.00,,SKC,0.00,VWS V14.01,2013-02-14 23:34:00,
2013-02-14 15:39:00,66.0,46.3,30.00,East,81,1.0,3.0,49,0.00,,SKC,0.00,VWS V14.01,2013-02-14 23:39:00,
2013-02-14 15:40:00,66.0,46.3,30.00,East,94,3.0,6.0,49,0.00,,SKC,0.00,VWS V14.01,2013-02-14 23:40:00,
2013-02-14 15:44:00,66.1,46.4,30.00,ENE,71,0.0,4.0,49,0.00,,SKC,0.00,VWS V14.01,2013-02-14 23:44:00,
2013-02-14 15:49:00,65.9,46.2,30.00,East,98,1.0,3.0,49,0.00,,SKC,0.00,VWS V14.01,2013-02-14 23:49:00,
2013-02-14 15:50:00,65.9,46.2,30.00,East,94,2.0,4.0,49,0.00,,SKC,0.00,VWS V14.01,2013-02-14 23:50:00,
2013-02-14 15:54:00,65.7,46.0,30.00,East,99,0.0,3.0,49,0.00,,SKC,0.00,VWS V14.01,2013-02-14 23:54:00,
2013-02-14 16:00:00,65.5,46.4,30.00,SE,134,2.0,3.0,50,0.00,,SKC,0.00,VWS V14.01,2013-02-15 00:00:00,
2013-02-14 16:05:00,65.1,46.5,30.00,East,94,0.0,5.0,51,0.00,,SKC,0.00,VWS V14.01,2013-02-15 00:05:00,
2013-02-14 16:10:00,65.1,47.1,30.00,East,90,0.0,2.0,52,0.00,,SKC,0.00,VWS V14.01,2013-02-15 00:10:00,
2013-02-14 16:15:00,65.1,47.1,29.99,ESE,116,2.0,3.0,52,0.00,,SKC,0.00,VWS V14.01,2013-02-15 00:15:00,
2013-02-14 16:20:00,64.9,46.9,29.99,SE,126,0.0,4.0,52,0.00,,SKC,0.00,VWS V14.01,2013-02-15 00:20:00,
2013-02-14 16:25:00,64.7,46.7,29.99,SE,145,3.0,4.0,52,0.00,,SKC,0.00,VWS V14.01,2013-02-15 00:25:00,
2013-02-14 16:30:00,64.5,46.5,30.00,SE,140,2.0,2.0,52,0.00,,SKC,0.00,VWS V14.01,2013-02-15 00:30:00,
2013-02-14 16:35:00,64.4,46.9,30.00,ESE,112,0.0,4.0,53,0.00,,SKC,0.00,VWS V14.01,2013-02-15 00:35:00,
2013-02-14 16:40:00,64.2,46.7,30.00,SE,131,1.0,3.0,53,0.00,,SKC,0.00,VWS V14.01,2013-02-15 00:40:00,
2013-02-14 16:45:00,64.0,46.5,30.00,ESE,117,1.0,4.0,53,0.00,,SKC,0.00,VWS V14.01,2013-02-15 00:45:00,
2013-02-14 16:50:00,63.7,46.8,30.00,SSE,154,1.0,1.0,54,0.00,,SKC,0.00,VWS V14.01,2013-02-15 00:50:00,
2013-02-14 16:55:00,63.5,47.1,30.00,ESE,120,0.0,3.0,55,0.00,,SKC,0.00,VWS V14.01,2013-02-15 00:55:00,
2013-02-14 17:00:00,63.3,46.9,29.99,ESE,110,1.0,1.0,55,0.00,,SKC,0.00,VWS V14.01,2013-02-15 01:00:00,
2013-02-14 17:05:00,63.2,46.8,29.99,ESE,110,0.0,2.0,55,0.00,,SKC,0.00,VWS V14.01,2013-02-15 01:05:00,
2013-02-14 17:10:00,63.0,46.6,29.99,ESE,121,0.0,2.0,55,0.00,,SKC,0.00,VWS V14.01,2013-02-15 01:10:00,
2013-02-14 17:15:00,62.8,46.9,29.99,ESE,112,0.0,3.0,56,0.00,,SKC,0.00,VWS V14.01,2013-02-15 01:15:00,
2013-02-14 17:20:00,62.6,47.2,29.99,ESE,113,0.0,3.0,57,0.00,,SKC,0.00,VWS V14.01,2013-02-15 01:20:00,
2013-02-14 17:25:00,62.4,47.0,29.99,SE,145,0.0,4.0,57,0.00,,SKC,0.00,VWS V14.01,2013-02-15 01:25:00,
2013-02-14 17:30:00,62.1,47.2,30.00,SE,145,1.0,1.0,58,0.00,,SKC,0.00,VWS V14.01,2013-02-15 01:30:00,
2013-02-14 17:35:00,61.8,46.9,30.00,SE,145,0.0,2.0,58,0.00,,SKC,0.00,VWS V14.01,2013-02-15 01:35:00,
2013-02-14 17:40:00,61.4,47.0,30.00,SE,145,1.0,2.0,59,0.00,,SKC,0.00,VWS V14.01,2013-02-15 01:40:00,
2013-02-14 17:45:00,61.1,47.1,30.00,SE,145,0.0,2.0,60,0.00,,SKC,0.00,VWS V14.01,2013-02-15 01:45:00,
2013-02-14 17:50:00,60.7,46.8,30.00,SE,145,0.0,1.0,60,0.00,,SKC,0.00,VWS V14.01,2013-02-15 01:50:00,
2013-02-14 17:55:00,60.3,46.4,30.00,SE,145,0.0,1.0,60,0.00,,SKC,0.00,VWS V14.01,2013-02-15 01:55:00,
2013-02-14 18:00:00,60.0,46.5,29.99,SE,145,0.0,0.0,61,0.00,,SKC,0.00,VWS V14.01,2013-02-15 02:00:00,
2013-02-14 18:05:00,59.6,46.6,29.99,SE,145,0.0,0.0,62,0.00,,SKC,0.00,VWS V14.01,2013-02-15 02:05:00,
2013-02-14 18:10:00,59.3,46.3,29.99,SE,145,0.0,0.0,62,0.00,,SKC,0.00,VWS V14.01,2013-02-15 02:10:00,
2013-02-14 18:15:00,58.9,45.9,29.99,SE,145,0.0,0.0,62,0.00,,SKC,0.00,VWS V14.01,2013-02-15 02:15:00,
2013-02-14 18:20:00,58.6,46.5,29.99,SE,145,0.0,0.0,64,0.00,,SKC,0.00,VWS V14.01,2013-02-15 02:20:00,
2013-02-14 18:21:00,58.4,46.7,29.99,SE,145,0.0,0.0,65,0.00,,SKC,0.00,VWS V14.01,2013-02-15 02:21:00,
2013-02-14 18:26:00,57.9,46.6,29.99,SE,145,0.0,1.0,66,0.00,,SKC,0.00,VWS V14.01,2013-02-15 02:26:00,
2013-02-14 18:30:00,57.7,46.4,30.00,SE,145,0.0,1.0,66,0.00,,SKC,0.00,VWS V14.01,2013-02-15 02:30:00,
2013-02-14 18:31:00,57.5,46.2,30.00,SE,145,0.0,0.0,66,0.00,,SKC,0.00,VWS V14.01,2013-02-15 02:31:00,
2013-02-14 18:36:00,57.1,46.3,30.00,SE,145,1.0,1.0,67,0.00,,SKC,0.00,VWS V14.01,2013-02-15 02:36:00,
2013-02-14 18:40:00,56.8,46.0,30.00,SE,145,0.0,1.0,67,0.00,,SKC,0.00,VWS V14.01,2013-02-15 02:40:00,
2013-02-14 18:41:00,56.6,46.2,30.00,SE,145,0.0,0.0,68,0.00,,SKC,0.00,VWS V14.01,2013-02-15 02:41:00,
2013-02-14 18:46:00,56.2,45.8,30.00,SE,145,0.0,1.0,68,0.00,,SKC,0.00,VWS V14.01,2013-02-15 02:46:00,
2013-02-14 18:50:00,55.9,45.9,30.00,SE,145,0.0,1.0,69,0.00,,SKC,0.00,VWS V14.01,2013-02-15 02:50:00,
2013-02-14 18:51:00,55.7,45.7,30.00,SE,145,0.0,0.0,69,0.00,,SKC,0.00,VWS V14.01,2013-02-15 02:51:00,
2013-02-14 18:56:00,55.4,45.4,30.00,SE,145,0.0,0.0,69,0.00,,SKC,0.00,VWS V14.01,2013-02-15 02:56:00,
2013-02-14 19:00:00,55.2,45.6,30.00,SE,145,0.0,0.0,70,0.00,,SKC,0.00,VWS V14.01,2013-02-15 03:00:00,
2013-02-14 19:01:00,55.1,45.5,30.00,SE,145,0.0,0.0,70,0.00,,SKC,0.00,VWS V14.01,2013-02-15 03:01:00,
2013-02-14 19:06:00,54.8,45.6,30.00,SE,145,0.0,0.0,71,0.00,,SKC,0.00,VWS V14.01,2013-02-15 03:06:00,
2013-02-14 19:10:00,54.7,45.5,30.00,SE,145,0.0,0.0,71,0.00,,SKC,0.00,VWS V14.01,2013-02-15 03:10:00,
2013-02-14 19:11:00,54.5,45.3,30.00,SE,145,0.0,0.0,71,0.00,,SKC,0.00,VWS V14.01,2013-02-15 03:11:00,
2013-02-14 19:16:00,54.3,45.1,30.00,SE,145,0.0,0.0,71,0.00,,SKC,0.00,VWS V14.01,2013-02-15 03:16:00,
2013-02-14 19:20:00,54.2,45.4,30.00,SE,145,0.0,0.0,72,0.00,,SKC,0.00,VWS V14.01,2013-02-15 03:20:00,
2013-02-14 19:21:00,54.0,45.2,30.00,SE,145,0.0,0.0,72,0.00,,SKC,0.00,VWS V14.01,2013-02-15 03:21:00,
2013-02-14 19:26:00,53.7,44.9,30.00,SE,145,0.0,0.0,72,0.00,,SKC,0.00,VWS V14.01,2013-02-15 03:26:00,
2013-02-14 19:30:00,53.7,44.9,30.00,SE,145,0.0,0.0,72,0.00,,SKC,0.00,VWS V14.01,2013-02-15 03:30:00,
2013-02-14 19:31:00,53.5,44.7,30.00,SE,145,0.0,0.0,72,0.00,,SKC,0.00,VWS V14.01,2013-02-15 03:31:00,
2013-02-14 19:36:00,53.3,44.9,30.00,SE,145,0.0,0.0,73,0.00,,SKC,0.00,VWS V14.01,2013-02-15 03:36:00,
2013-02-14 19:40:00,53.2,44.8,30.00,SE,145,0.0,0.0,73,0.00,,SKC,0.00,VWS V14.01,2013-02-15 03:40:00,
2013-02-14 19:41:00,53.0,45.0,30.00,SE,145,0.0,0.0,74,0.00,,SKC,0.00,VWS V14.01,2013-02-15 03:41:00,
2013-02-14 19:47:00,52.9,44.8,30.00,SE,145,0.0,0.0,74,0.00,,SKC,0.00,VWS V14.01,2013-02-15 03:47:00,
2013-02-14 19:50:00,52.8,44.8,30.00,SE,145,0.0,0.0,74,0.00,,SKC,0.00,VWS V14.01,2013-02-15 03:50:00,
2013-02-14 19:52:00,52.7,44.7,30.00,SE,145,0.0,0.0,74,0.00,,SKC,0.00,VWS V14.01,2013-02-15 03:52:00,
2013-02-14 19:57:00,52.6,44.6,30.00,SE,145,0.0,0.0,74,0.00,,SKC,0.00,VWS V14.01,2013-02-15 03:57:00,
2013-02-14 20:00:00,52.6,44.6,30.00,SE,145,0.0,0.0,74,0.00,,SKC,0.00,VWS V14.01,2013-02-15 04:00:00,
2013-02-14 20:02:00,52.4,44.7,30.00,SE,145,0.0,0.0,75,0.00,,SKC,0.00,VWS V14.01,2013-02-15 04:02:00,
2013-02-14 20:07:00,52.2,44.5,30.00,SE,145,0.0,0.0,75,0.00,,SKC,0.00,VWS V14.01,2013-02-15 04:07:00,
2013-02-14 20:10:00,49.1,42.9,30.02,SE,145,0.0,0.0,79,0.00,,BKN110,0.00,VWS V14.01,2013-02-15 04:10:00,
2013-02-14 20:12:00,51.8,44.1,30.00,SE,145,0.0,0.0,75,0.00,,SKC,0.00,VWS V14.01,2013-02-15 04:12:00,
2013-02-14 20:17:00,51.5,44.2,30.01,SE,145,0.0,0.0,76,0.00,,SKC,0.00,VWS V14.01,2013-02-15 04:17:00,
2013-02-14 20:20:00,48.7,42.8,30.02,SE,145,0.0,0.0,80,0.00,,BKN110,0.00,VWS V14.01,2013-02-15 04:20:00,
2013-02-14 20:22:00,51.3,43.7,30.01,SE,145,0.0,0.0,75,0.00,,SKC,0.00,VWS V14.01,2013-02-15 04:22:00,
2013-02-14 20:27:00,51.0,43.7,30.01,SE,145,0.0,0.0,76,0.00,,SKC,0.00,VWS V14.01,2013-02-15 04:27:00,
2013-02-14 20:30:00,50.9,43.6,30.01,SE,145,0.0,0.0,76,0.00,,SKC,0.00,VWS V14.01,2013-02-15 04:30:00,
2013-02-14 20:32:00,50.7,43.4,30.01,SE,145,0.0,0.0,76,0.00,,SKC,0.00,VWS V14.01,2013-02-15 04:32:00,
2013-02-14 20:37:00,50.5,43.6,30.01,SE,145,0.0,0.0,77,0.00,,SKC,0.00,VWS V14.01,2013-02-15 04:37:00,
2013-02-14 20:40:00,50.4,43.5,30.01,SE,145,0.0,0.0,77,0.00,,SKC,0.00,VWS V14.01,2013-02-15 04:40:00,
2013-02-14 20:42:00,50.2,43.3,30.01,SE,145,0.0,0.0,77,0.00,,SKC,0.00,VWS V14.01,2013-02-15 04:42:00,
2013-02-14 20:47:00,49.9,43.3,30.02,SE,145,0.0,0.0,78,0.00,,SKC,0.00,VWS V14.01,2013-02-15 04:47:00,
2013-02-14 20:50:00,49.8,43.2,30.02,SE,145,0.0,0.0,78,0.00,,SKC,0.00,VWS V14.01,2013-02-15 04:50:00,
2013-02-14 20:52:00,49.7,43.1,30.02,SE,145,0.0,0.0,78,0.00,,SKC,0.00,VWS V14.01,2013-02-15 04:52:00,
2013-02-14 20:58:00,49.5,43.3,30.02,SE,145,0.0,0.0,79,0.00,,SKC,0.00,VWS V14.01,2013-02-15 04:58:00,
2013-02-14 21:00:00,49.4,43.2,30.02,SE,145,0.0,0.0,79,0.00,,SKC,0.00,VWS V14.01,2013-02-15 05:00:00,
2013-02-14 21:01:00,49.4,43.2,30.02,SE,145,0.0,0.0,79,0.00,,SKC,0.00,VWS V14.01,2013-02-15 05:01:00,
2013-02-14 21:06:00,49.2,43.0,30.02,SE,145,0.0,0.0,79,0.00,,SKC,0.00,VWS V14.01,2013-02-15 05:06:00,
2013-02-14 21:10:00,49.1,42.9,30.02,SE,145,0.0,0.0,79,0.00,,SKC,0.00,VWS V14.01,2013-02-15 05:10:00,
2013-02-14 21:12:00,49.0,42.8,30.02,SE,145,0.0,0.0,79,0.00,,SKC,0.00,VWS V14.01,2013-02-15 05:12:00,
2013-02-14 21:17:00,48.8,42.9,30.02,SE,145,0.0,0.0,80,0.00,,SKC,0.00,VWS V14.01,2013-02-15 05:17:00,
2013-02-14 21:20:00,48.7,42.8,30.02,SE,145,0.0,0.0,80,0.00,,SKC,0.00,VWS V14.01,2013-02-15 05:20:00,
2013-02-14 21:22:00,48.6,42.7,30.02,SE,145,0.0,0.0,80,0.00,,SKC,0.00,VWS V14.01,2013-02-15 05:22:00,
2013-02-14 21:27:00,48.4,43.2,30.02,SE,145,0.0,0.0,82,0.00,,SKC,0.00,VWS V14.01,2013-02-15 05:27:00,
2013-02-14 21:30:00,48.4,43.2,30.02,SE,145,0.0,0.0,82,0.00,,SKC,0.00,VWS V14.01,2013-02-15 05:30:00,
2013-02-14 21:32:00,48.4,43.2,30.02,SE,145,0.0,0.0,82,0.00,,SKC,0.00,VWS V14.01,2013-02-15 05:32:00,
2013-02-14 21:37:00,48.4,42.8,30.02,SE,145,0.0,0.0,81,0.00,,SKC,0.00,VWS V14.01,2013-02-15 05:37:00,
2013-02-14 21:40:00,48.3,42.8,30.02,SE,145,0.0,0.0,81,0.00,,SKC,0.00,VWS V14.01,2013-02-15 05:40:00,
2013-02-14 21:42:00,48.3,42.8,30.02,SE,145,0.0,0.0,81,0.00,,SKC,0.00,VWS V14.01,2013-02-15 05:42:00,
2013-02-14 21:47:00,48.1,42.5,30.02,SE,145,0.0,0.0,81,0.00,,SKC,0.00,VWS V14.01,2013-02-15 05:47:00,
2013-02-14 21:50:00,48.1,42.9,30.02,SE,145,0.0,0.0,82,0.00,,SKC,0.00,VWS V14.01,2013-02-15 05:50:00,
2013-02-14 21:52:00,48.0,42.5,30.02,SE,145,0.0,0.0,81,0.00,,SKC,0.00,VWS V14.01,2013-02-15 05:52:00,
2013-02-14 21:57:00,47.9,42.4,30.02,SE,145,0.0,0.0,81,0.00,,SKC,0.00,VWS V14.01,2013-02-15 05:57:00,
2013-02-14 22:00:00,47.8,42.3,30.03,SE,145,0.0,0.0,81,0.00,,SKC,0.00,VWS V14.01,2013-02-15 06:00:00,
2013-02-14 22:02:00,47.6,42.1,30.03,SE,145,0.0,0.0,81,0.00,,SKC,0.00,VWS V14.01,2013-02-15 06:02:00,
2013-02-14 22:07:00,47.5,42.3,30.03,SE,145,0.0,0.0,82,0.00,,SKC,0.00,VWS V14.01,2013-02-15 06:07:00,
2013-02-14 22:10:00,47.5,42.3,30.03,SE,145,0.0,0.0,82,0.00,,SKC,0.00,VWS V14.01,2013-02-15 06:10:00,
2013-02-14 22:12:00,47.4,42.2,30.03,SE,145,0.0,0.0,82,0.00,,SKC,0.00,VWS V14.01,2013-02-15 06:12:00,
2013-02-14 22:17:00,47.3,42.1,30.03,SE,145,0.0,0.0,82,0.00,,SKC,0.00,VWS V14.01,2013-02-15 06:17:00,
2013-02-14 22:20:00,46.0,41.4,30.05,SE,145,0.0,0.0,84,0.00,,FEW200,0.00,VWS V14.01,2013-02-15 06:20:00,
2013-02-14 22:22:00,47.1,41.9,30.03,SE,145,0.0,0.0,82,0.00,,SKC,0.00,VWS V14.01,2013-02-15 06:22:00,
2013-02-14 22:28:00,47.0,42.1,30.03,SE,145,0.0,0.0,83,0.00,,SKC,0.00,VWS V14.01,2013-02-15 06:28:00,
2013-02-14 22:30:00,47.0,42.1,30.03,SE,145,0.0,0.0,83,0.00,,SKC,0.00,VWS V14.01,2013-02-15 06:30:00,
2013-02-14 22:33:00,46.9,42.0,30.03,SE,145,0.0,0.0,83,0.00,,SKC,0.00,VWS V14.01,2013-02-15 06:33:00,
2013-02-14 22:38:00,46.7,41.8,30.03,SE,145,0.0,0.0,83,0.00,,SKC,0.00,VWS V14.01,2013-02-15 06:38:00,
2013-02-14 22:40:00,46.7,41.8,30.03,SE,145,0.0,0.0,83,0.00,,SKC,0.00,VWS V14.01,2013-02-15 06:40:00,
2013-02-14 22:43:00,46.6,41.7,30.04,SE,145,0.0,0.0,83,0.00,,SKC,0.00,VWS V14.01,2013-02-15 06:43:00,
2013-02-14 22:48:00,46.6,42.0,30.04,SE,145,0.0,0.0,84,0.00,,SKC,0.00,VWS V14.01,2013-02-15 06:48:00,
2013-02-14 22:50:00,46.6,42.0,30.04,SE,145,0.0,0.0,84,0.00,,SKC,0.00,VWS V14.01,2013-02-15 06:50:00,
2013-02-14 22:53:00,46.6,42.0,30.04,SE,145,0.0,0.0,84,0.00,,SKC,0.00,VWS V14.01,2013-02-15 06:53:00,
2013-02-14 22:58:00,46.6,42.0,30.05,SE,145,0.0,0.0,84,0.00,,SKC,0.00,VWS V14.01,2013-02-15 06:58:00,
2013-02-14 23:00:00,46.6,42.0,30.05,SE,145,0.0,0.0,84,0.00,,SKC,0.00,VWS V14.01,2013-02-15 07:00:00,
2013-02-14 23:03:00,46.4,41.5,30.05,SE,145,0.0,0.0,83,0.00,,SKC,0.00,VWS V14.01,2013-02-15 07:03:00,
2013-02-14 23:08:00,46.3,41.7,30.05,SE,145,0.0,0.0,84,0.00,,SKC,0.00,VWS V14.01,2013-02-15 07:08:00,
2013-02-14 23:10:00,46.2,41.6,30.05,SE,145,0.0,0.0,84,0.00,,SKC,0.00,VWS V14.01,2013-02-15 07:10:00,
2013-02-14 23:13:00,46.1,41.5,30.05,SE,145,0.0,0.0,84,0.00,,SKC,0.00,VWS V14.01,2013-02-15 07:13:00,
2013-02-14 23:18:00,46.0,41.4,30.05,SE,145,0.0,0.0,84,0.00,,SKC,0.00,VWS V14.01,2013-02-15 07:18:00,
2013-02-14 23:20:00,46.0,41.4,30.05,SE,145,0.0,0.0,84,0.00,,SKC,0.00,VWS V14.01,2013-02-15 07:20:00,
2013-02-14 23:23:00,46.0,41.4,30.05,SE,145,0.0,0.0,84,0.00,,SKC,0.00,VWS V14.01,2013-02-15 07:23:00,
2013-02-14 23:28:00,45.9,41.3,30.05,SE,145,0.0,0.0,84,0.00,,SKC,0.00,VWS V14.01,2013-02-15 07:28:00,
2013-02-14 23:30:00,45.9,41.3,30.05,SE,145,0.0,0.0,84,0.00,,SKC,0.00,VWS V14.01,2013-02-15 07:30:00,
2013-02-14 23:33:00,45.9,41.7,30.05,SE,145,0.0,1.0,85,0.00,,SKC,0.00,VWS V14.01,2013-02-15 07:33:00,
2013-02-14 23:38:00,46.0,41.8,30.05,SE,145,0.0,1.0,85,0.00,,SKC,0.00,VWS V14.01,2013-02-15 07:38:00,
2013-02-14 23:40:00,46.0,41.8,30.05,SE,145,0.0,1.0,85,0.00,,SKC,0.00,VWS V14.01,2013-02-15 07:40:00,
2013-02-14 23:43:00,45.9,41.7,30.05,SE,145,0.0,0.0,85,0.00,,SKC,0.00,VWS V14.01,2013-02-15 07:43:00,
2013-02-14 23:48:00,45.9,41.7,30.05,SE,145,0.0,0.0,85,0.00,,SKC,0.00,VWS V14.01,2013-02-15 07:48:00,
2013-02-14 23:50:00,45.9,41.7,30.05,SE,145,0.0,0.0,85,0.00,,SKC,0.00,VWS V14.01,2013-02-15 07:50:00,
2013-02-14 23:53:00,46.0,41.8,30.05,SE,145,0.0,0.0,85,0.00,,SKC,0.00,VWS V14.01,2013-02-15 07:53:00,
2013-02-14 23:58:00,46.1,41.8,30.05,SE,145,0.0,0.0,85,0.00,,SKC,0.00,VWS V14.01,2013-02-15 07:58:00,